Time;durP1;ratioP1;P1;durP2;ratioP2;P2;SDS_P1;SDS_P2;PMS_P1;PMS_P2;Temp;Humidity;BMP_temperature;BMP_pressure;BME280_temperature;BME280_humidity;BME280_pressure;Samples;Min_cycle;Max_cycle;Signal;HPM_P1;HPM_P2
2022/09/06 00:01:45;;;;;;;4.68;0.65;;;23.90;78.00;;;;;;5030410;28;20069;-82
2022/09/06 00:04:11;;;;;;;4.95;1.05;;;;;;;;;;5031083;28;20025;-82
2022/09/06 00:06:37;;;;;;;2.47;0.73;;;;;;;;;;5031183;28;20596;-82
2022/09/06 00:09:03;;;;;;;2.35;0.57;;;23.90;78.30;;;;;;5031220;28;20063;-82
2022/09/06 00:11:29;;;;;;;3.33;1.13;;;;;;;;;;5030554;28;20031;-83
2022/09/06 00:13:55;;;;;;;3.50;0.85;;;;;;;;;;5012325;28;20022;-82
2022/09/06 00:16:23;;;;;;;3.78;0.63;;;24.00;77.70;;;;;;5025405;28;20489;-83
2022/09/06 00:18:51;;;;;;;5.70;0.68;;;24.00;66.20;;;;;;5023108;28;20088;-83
2022/09/06 00:21:29;;;;;;;3.20;0.70;;;24.00;78.00;;;;;;5030779;28;20049;-82
2022/09/06 00:23:54;;;;;;;;;;;24.00;66.80;;;;;;5031398;28;20022;-82
2022/09/06 00:26:21;;;;;;;7.85;1.08;;;23.60;71.30;;;;;;5030878;28;19955;-83
2022/09/06 00:28:47;;;;;;;2.70;1.42;;;23.40;75.60;;;;;;5030185;28;20667;-83
2022/09/06 00:31:22;;;;;;;6.22;0.80;;;23.30;73.10;;;;;;5030605;28;20564;-82
2022/09/06 00:33:48;;;;;;;1.55;0.60;;;23.30;68.90;;;;;;5030826;28;20040;-83
2022/09/06 00:36:14;;;;;;;4.97;0.65;;;23.40;80.60;;;;;;5012749;28;20025;-82
2022/09/06 00:38:40;;;;;;;3.95;0.80;;;;;;;;;;5029987;28;20104;-82
2022/09/06 00:41:08;;;;;;;10.50;0.90;;;23.40;80.80;;;;;;5030566;28;20084;-82
2022/09/06 00:43:34;;;;;;;5.15;0.98;;;23.20;80.40;;;;;;5030524;28;20053;-82
2022/09/06 00:46:01;;;;;;;2.03;0.43;;;23.20;69.10;;;;;;5030337;28;20056;-83
2022/09/06 00:48:27;;;;;;;;;;;23.30;69.40;;;;;;5031148;28;20022;-83
2022/09/06 00:51:00;;;;;;;7.57;0.90;;;23.40;81.20;;;;;;5031108;28;19952;-83
2022/09/06 00:53:26;;;;;;;9.07;1.40;;;23.20;73.50;;;;;;5025886;28;20033;-83
2022/09/06 00:55:53;;;;;;;6.73;1.03;;;23.10;69.20;;;;;;5021415;28;20025;-84
2022/09/06 00:58:19;;;;;;;4.20;1.60;;;;;;;;;;5029427;28;20037;-83
2022/09/06 01:00:45;;;;;;;1.52;0.70;;;;;;;;;;5030416;28;20049;-82
2022/09/06 01:03:11;;;;;;;3.03;0.73;;;23.20;71.60;;;;;;5030332;28;20525;-83
2022/09/06 01:06:19;;;;;;;3.63;0.70;;;23.10;69.80;;;;;;5029022;28;20671;-83
2022/09/06 01:08:57;;;;;;;0.63;0.38;;;23.00;70.10;;;;;;5021672;28;20045;-83
2022/09/06 01:11:50;;;;;;;9.93;1.25;;;22.90;70.00;;;;;;5030396;28;20014;-83
2022/09/06 01:14:39;;;;;;;0.60;0.32;;;22.90;80.70;;;;;;5029656;28;20099;-83
2022/09/06 01:17:42;;;;;;;2.90;0.52;;;22.80;70.30;;;;;;5029042;28;20132;-83
2022/09/06 01:20:08;;;;;;;3.95;0.85;;;;;;;;;;5017760;28;20042;-82
2022/09/06 01:22:46;;;;;;;4.60;0.82;;;22.70;81.80;;;;;;5026674;28;20505;-82
2022/09/06 01:25:33;;;;;;;4.82;0.98;;;22.70;78.40;;;;;;5007673;28;20021;-83
2022/09/06 01:28:20;;;;;;;1.13;0.40;;;22.50;78.10;;;;;;5029825;28;20031;-83
2022/09/06 01:30:56;;;;;;;0.90;0.45;;;22.60;70.60;;;;;;5029304;28;20017;-83
2022/09/06 01:33:32;;;;;;;5.88;2.47;;;22.60;82.90;;;;;;5029754;28;20512;-83
2022/09/06 01:36:05;;;;;;;2.40;0.55;;;22.40;71.80;;;;;;5029675;28;20021;-82
2022/09/06 01:38:32;;;;;;;4.68;0.73;;;;;;;;;;5029061;28;20040;-82
2022/09/06 01:40:57;;;;;;;5.75;1.30;;;;;;;;;;5029813;28;20021;-82
2022/09/06 01:43:31;;;;;;;2.22;0.63;;;22.20;72.70;;;;;;5029791;28;20045;-83
2022/09/06 01:45:57;;;;;;;3.17;0.40;;;;;;;;;;5029908;28;20517;-82
2022/09/06 01:48:32;;;;;;;3.10;0.82;;;22.10;72.80;;;;;;5027918;28;20029;-82
2022/09/06 01:51:08;;;;;;;4.38;1.13;;;22.00;77.40;;;;;;5010575;28;20037;-83
2022/09/06 01:54:08;;;;;;;5.35;1.58;;;22.20;82.70;;;;;;5027435;28;20064;-82
2022/09/06 01:56:34;;;;;;;2.30;0.75;;;;;;;;;;5029762;28;20039;-82
2022/09/06 01:59:00;;;;;;;1.40;1.30;;;;;;;;;;5029132;28;20029;-82
2022/09/06 02:01:40;;;;;;;0.73;0.52;;;21.80;74.40;;;;;;5029802;28;20025;-82
2022/09/06 02:04:11;;;;;;;1.30;0.70;;;21.70;74.30;;;;;;5029391;28;20024;-83
2022/09/06 02:06:42;;;;;;;2.50;0.55;;;21.80;74.20;;;;;;5029188;28;20029;-82
2022/09/06 02:09:16;;;;;;;2.15;1.05;;;21.90;74.20;;;;;;5029744;28;20021;-82
2022/09/06 02:11:50;;;;;;;0.50;0.50;;;21.90;74.20;;;;;;5029954;28;20029;-84
2022/09/06 02:14:28;;;;;;;3.00;0.68;;;21.80;79.00;;;;;;5017693;28;20394;-83
2022/09/06 02:16:56;;;;;;;1.35;0.90;;;21.90;74.40;;;;;;5029603;28;20029;-82
2022/09/06 02:19:37;;;;;;;4.18;0.68;;;22.00;77.10;;;;;;5029703;28;20091;-83
2022/09/06 02:22:07;;;;;;;4.55;0.77;;;21.70;75.30;;;;;;5022646;28;20474;-82
2022/09/06 02:24:36;;;;;;;2.58;1.17;;;21.50;87.50;;;;;;5021359;28;20021;-82
2022/09/06 02:27:02;;;;;;;3.20;0.68;;;21.50;75.90;;;;;;5033078;28;20041;-82
2022/09/06 02:29:28;;;;;;;5.10;1.55;;;;;;;;;;5032626;28;20030;-83
2022/09/06 02:32:19;;;;;;;3.85;0.85;;;21.40;76.60;;;;;;5032836;28;20040;-82
2022/09/06 02:34:45;;;;;;;4.85;0.73;;;;;;;;;;5032527;28;20068;-82
2022/09/06 02:37:12;;;;;;;1.30;0.60;;;21.20;88.60;;;;;;5032809;28;20029;-82
2022/09/06 02:39:38;;;;;;;7.00;0.93;;;21.30;77.20;;;;;;5032565;28;20052;-82
2022/09/06 02:42:05;;;;;;;4.53;0.98;;;21.20;83.90;;;;;;5032911;28;20040;-82
2022/09/06 02:44:31;;;;;;;1.40;0.75;;;;;;;;;;5032754;28;20117;-82
2022/09/06 02:46:57;;;;;;;3.90;1.00;;;;;;;;;;5032749;28;20561;-82
2022/09/06 02:49:23;;;;;;;4.00;0.98;;;21.20;77.90;;;;;;5032358;28;20032;-82
2022/09/06 02:51:49;;;;;;;3.22;0.70;;;21.10;87.80;;;;;;5032584;28;20029;-82
2022/09/06 02:54:15;;;;;;;3.58;1.35;;;;;;;;;;5032452;28;20401;-82
2022/09/06 02:56:42;;;;;;;5.45;1.27;;;21.00;85.80;;;;;;5032267;28;20508;-82
2022/09/06 02:59:08;;;;;;;6.75;0.70;;;;;;;;;;5031506;28;20049;-82
2022/09/06 03:01:34;;;;;;;10.23;1.20;;;;;;;;;;5031328;28;20018;-82
2022/09/06 03:04:00;;;;;;;1.05;0.63;;;;;;;;;;5032338;28;20033;-82
2022/09/06 03:06:26;;;;;;;2.53;0.60;;;21.20;90.30;;;;;;5032188;28;20036;-82
2022/09/06 03:08:52;;;;;;;3.53;1.05;;;;;;;;;;5020088;28;20022;-82
2022/09/06 03:11:18;;;;;;;3.40;0.70;;;21.30;84.20;;;;;;5032288;28;20508;-83
2022/09/06 03:13:44;;;;;;;1.20;0.40;;;;;;;;;;5030903;28;20068;-83
2022/09/06 03:16:10;;;;;;;4.20;0.90;;;;;;;;;;5031894;28;20083;-82
2022/09/06 03:18:36;;;;;;;5.10;1.35;;;21.10;90.50;;;;;;5031789;28;20136;-82
2022/09/06 03:21:02;;;;;;;2.38;0.85;;;;;;;;;;5032281;28;20030;-83
2022/09/06 03:23:28;;;;;;;4.03;1.23;;;21.20;79.60;;;;;;5031841;28;20021;-82
2022/09/06 03:25:54;;;;;;;2.60;0.60;;;21.40;80.20;;;;;;5032138;28;20076;-82
2022/09/06 03:28:20;;;;;;;3.25;0.55;;;21.30;90.80;;;;;;5031309;28;20026;-82
2022/09/06 03:30:48;;;;;;;2.72;0.55;;;21.30;90.50;;;;;;5031919;28;20028;-83
2022/09/06 03:33:14;;;;;;;2.08;0.47;;;;;;;;;;5030083;28;20029;-82
2022/09/06 03:35:45;;;;;;;4.63;0.90;;;21.50;90.90;;;;;;5031668;28;20021;-81
2022/09/06 03:38:11;;;;;;;2.47;0.73;;;;;;;;;;5031355;28;20061;-82
2022/09/06 03:40:37;;;;;;;1.13;0.70;;;21.20;90.90;;;;;;5031413;28;20133;-82
2022/09/06 03:43:02;;;;;;;0.95;0.60;;;21.20;91.00;;;;;;5031403;28;20025;-82
2022/09/06 03:45:28;;;;;;;6.85;0.95;;;21.30;87.90;;;;;;5031540;28;20386;-82
2022/09/06 03:47:54;;;;;;;1.63;0.63;;;;;;;;;;5018366;28;20108;-82
2022/09/06 03:50:19;;;;;;;2.55;0.95;;;20.70;90.10;;;;;;5031201;28;20029;-82
2022/09/06 03:52:46;;;;;;;3.25;1.42;;;;;;;;;;5031072;28;20120;-83
2022/09/06 03:55:11;;;;;;;4.95;1.02;;;;;;;;;;5031571;28;20593;-83
2022/09/06 03:57:37;;;;;;;3.88;0.82;;;;;;;;;;5031284;28;20104;-83
2022/09/06 04:00:04;;;;;;;11.82;1.17;;;;;;;;;;5031230;28;20025;-84
2022/09/06 04:02:30;;;;;;;3.80;1.17;;;;;;;;;;5013305;28;20042;-82
2022/09/06 04:04:56;;;;;;;1.80;0.70;;;;;;;;;;5030911;28;20501;-82
2022/09/06 04:07:22;;;;;;;2.95;0.95;;;21.00;83.60;;;;;;5030610;28;20021;-82
2022/09/06 04:09:48;;;;;;;2.60;1.20;;;21.30;85.80;;;;;;5031232;28;20494;-82
2022/09/06 04:12:14;;;;;;;4.45;1.00;;;;;;;;;;5031053;28;20045;-82
2022/09/06 04:14:40;;;;;;;5.88;1.05;;;;;;;;;;5031039;28;20501;-83
2022/09/06 04:17:06;;;;;;;3.25;0.95;;;;;;;;;;5030429;28;20041;-83
2022/09/06 04:19:32;;;;;;;12.05;1.75;;;20.90;89.30;;;;;;5030887;28;20037;-82
2022/09/06 04:21:58;;;;;;;3.70;1.05;;;;;;;;;;5027148;28;20022;-82
2022/09/06 04:24:24;;;;;;;2.70;1.00;;;;;;;;;;5011119;28;20056;-83
2022/09/06 04:26:50;;;;;;;2.92;0.70;;;20.70;91.70;;;;;;5027513;28;20060;-82
2022/09/06 04:29:16;;;;;;;2.42;0.82;;;;;;;;;;5030488;28;20032;-83
2022/09/06 04:31:42;;;;;;;5.30;0.93;;;;;;;;;;5030225;28;20026;-82
2022/09/06 04:34:08;;;;;;;4.15;1.33;;;;;;;;;;5030670;28;20086;-83
2022/09/06 04:36:34;;;;;;;7.40;1.00;;;;;;;;;;5030675;28;20029;-83
2022/09/06 04:39:00;;;;;;;6.07;1.58;;;;;;;;;;5012690;28;20498;-82
2022/09/06 04:41:26;;;;;;;5.03;1.08;;;;;;;;;;5030596;28;20032;-83
2022/09/06 04:43:52;;;;;;;4.25;0.90;;;;;;;;;;5030260;28;20044;-82
2022/09/06 04:46:26;;;;;;;3.05;1.17;;;20.60;86.70;;;;;;5026547;28;20025;-83
2022/09/06 04:48:53;;;;;;;3.40;1.45;;;21.00;87.50;;;;;;5021140;28;20034;-82
2022/09/06 04:51:20;;;;;;;2.80;0.88;;;20.90;91.20;;;;;;5030472;28;20027;-82
2022/09/06 04:53:45;;;;;;;2.90;1.73;;;20.60;91.00;;;;;;5030546;28;20121;-82
2022/09/06 04:56:15;;;;;;;7.88;1.15;;;20.50;87.40;;;;;;5030103;28;20704;-82
2022/09/06 04:58:43;;;;;;;10.48;1.27;;;20.40;94.20;;;;;;5030022;28;20065;-81
2022/09/06 05:01:09;;;;;;;2.55;1.08;;;;;;;;;;5012040;28;20032;-82
2022/09/06 05:03:34;;;;;;;4.00;1.40;;;20.30;94.30;;;;;;5030386;28;20034;-82
2022/09/06 05:06:04;;;;;;;3.63;1.27;;;20.40;90.00;;;;;;5030192;28;20022;-82
2022/09/06 05:08:30;;;;;;;1.83;0.90;;;20.70;94.50;;;;;;5030044;28;20105;-83
2022/09/06 05:10:56;;;;;;;7.10;1.35;;;;;;;;;;5030123;28;20108;-81
2022/09/06 05:13:22;;;;;;;2.50;0.98;;;;;;;;;;5029469;28;20040;-82
2022/09/06 05:15:48;;;;;;;2.78;1.17;;;;;;;;;;5024131;28;20026;-73
2022/09/06 05:18:14;;;;;;;4.78;0.80;;;;;;;;;;5019572;28;20156;-72
2022/09/06 05:20:40;;;;;;;3.28;1.38;;;;;;;;;;5026505;28;20028;-73
2022/09/06 05:23:06;;;;;;;2.13;1.02;;;;;;;;;;5027070;28;20026;-72
2022/09/06 05:25:31;;;;;;;1.27;0.77;;;;;;;;;;5021212;28;20025;-73
2022/09/06 05:27:57;;;;;;;3.42;1.23;;;;;;;;;;5019690;28;20510;-73
2022/09/06 05:30:23;;;;;;;4.03;1.58;;;;;;;;;;5023186;28;20033;-72
2022/09/06 05:32:50;;;;;;;3.08;1.88;;;20.10;93.50;;;;;;5015928;28;20022;-72
2022/09/06 05:35:16;;;;;;;4.57;0.80;;;;;;;;;;5023979;28;20070;-72
2022/09/06 05:37:42;;;;;;;1.05;0.70;;;;;;;;;;5027051;28;20100;-74
2022/09/06 05:40:08;;;;;;;3.00;0.90;;;;;;;;;;5027064;28;20112;-74
2022/09/06 05:42:34;;;;;;;3.67;1.15;;;;;;;;;;5027014;28;20106;-74
2022/09/06 05:45:01;;;;;;;4.63;1.15;;;;;;;;;;5026925;28;20028;-86
2022/09/06 05:47:27;;;;;;;1.58;0.80;;;;;;;;;;4990254;28;20033;-89
2022/09/06 05:49:53;;;;;;;7.88;1.65;;;;;;;;;;5004288;28;20106;-87
2022/09/06 05:52:19;;;;;;;1.38;0.60;;;;;;;;;;5026936;28;20465;-86
2022/09/06 05:54:45;;;;;;;4.13;1.10;;;;;;;;;;5028629;28;20064;-88
2022/09/06 05:57:11;;;;;;;3.05;1.58;;;21.20;95.20;;;;;;5011533;28;20026;-87
2022/09/06 05:59:37;;;;;;;5.00;1.38;;;;;;;;;;5028719;28;20036;-88
2022/09/06 06:02:03;;;;;;;1.67;1.50;;;;;;;;;;5032383;28;20022;-87
2022/09/06 06:04:29;;;;;;;3.33;2.03;;;;;;;;;;5032627;28;20566;-88
2022/09/06 06:06:55;;;;;;;1.92;1.10;;;21.60;94.80;;;;;;5004463;28;20268;-87
2022/09/06 06:09:20;;;;;;;2.30;0.90;;;22.20;94.40;;;;;;5031947;28;20512;-87
2022/09/06 06:11:47;;;;;;;3.25;1.23;;;;;;;;;;5012088;28;20112;-87
2022/09/06 06:14:13;;;;;;;2.67;1.13;;;;;;;;;;5031986;28;20083;-87
2022/09/06 06:16:39;;;;;;;5.43;1.67;;;;;;;;;;5011537;28;20402;-87
2022/09/06 06:19:05;;;;;;;3.63;0.88;;;;;;;;;;5030419;28;20045;-75
2022/09/06 06:21:32;;;;;;;4.07;0.95;;;23.20;84.60;;;;;;5025375;28;20029;-76
2022/09/06 06:24:00;;;;;;;1.10;0.65;;;23.40;84.30;;;;;;5031140;28;20049;-76
2022/09/06 06:26:27;;;;;;;2.67;1.30;;;24.10;83.20;;;;;;5031056;28;20026;-77
2022/09/06 06:28:54;;;;;;;1.23;0.98;;;25.10;84.40;;;;;;5030109;28;20022;-78
2022/09/06 06:31:21;;;;;;;2.88;1.33;;;;;;;;;;5030877;28;20076;-76
2022/09/06 06:33:47;;;;;;;3.58;1.02;;;29.50;74.30;;;;;;5031100;28;20072;-83
2022/09/06 06:36:13;;;;;;;4.17;1.30;;;;;;;;;;5015700;28;20095;-83
2022/09/06 06:38:41;;;;;;;9.20;1.42;;;33.00;61.90;;;;;;5012487;28;20708;-83
2022/09/06 06:41:09;;;;;;;1.55;0.63;;;35.10;58.70;;;;;;5031683;28;20022;-83
2022/09/06 06:43:36;;;;;;;3.55;1.35;;;35.90;63.50;;;;;;5031498;28;20242;-82
2022/09/06 06:46:07;;;;;;;3.15;0.95;;;34.90;56.90;;;;;;5031315;28;20029;-83
2022/09/06 06:48:34;;;;;;;4.22;0.90;;;36.70;62.30;;;;;;5030803;28;20052;-84
2022/09/06 06:50:59;;;;;;;2.05;1.13;;;;;;;;;;5021589;28;20036;-84
2022/09/06 06:53:25;;;;;;;7.03;1.42;;;;;;;;;;5031283;28;20022;-82
2022/09/06 06:55:51;;;;;;;5.07;1.27;;;43.60;48.70;;;;;;5030334;28;20487;-81
2022/09/06 06:58:18;;;;;;;10.60;1.48;;;42.40;45.30;;;;;;5030413;28;20025;-82
2022/09/06 07:00:43;;;;;;;;;;;42.40;45.00;;;;;;5031185;28;20521;-82
2022/09/06 07:03:10;;;;;;;15.02;2.42;;;44.30;42.90;;;;;;5025224;28;19959;-85
2022/09/06 07:05:37;;;;;;;4.28;1.83;;;45.10;41.40;;;;;;5030948;28;20445;-86
2022/09/06 07:08:03;;;;;;;4.85;1.25;;;;;;;;;;5030764;28;20394;-83
2022/09/06 07:10:28;;;;;;;5.30;1.25;;;46.40;40.40;;;;;;5030402;28;20028;-83
2022/09/06 07:12:54;;;;;;;1.45;0.60;;;46.80;39.50;;;;;;5031097;28;20033;-84
2022/09/06 07:15:20;;;;;;;3.90;1.60;;;;;;;;;;5030508;28;20033;-83
2022/09/06 07:17:46;;;;;;;7.72;1.20;;;;;;;;;;5018899;28;20045;-86
2022/09/06 07:20:12;;;;;;;6.55;0.98;;;48.60;37.90;;;;;;5030579;28;20030;-86
2022/09/06 07:22:38;;;;;;;7.50;2.75;;;48.70;34.30;;;;;;5030592;28;20029;-82
2022/09/06 07:25:04;;;;;;;2.95;1.17;;;;;;;;;;5029613;28;20555;-81
2022/09/06 07:27:30;;;;;;;4.60;1.42;;;50.10;37.00;;;;;;5030155;28;20136;-81
2022/09/06 07:29:56;;;;;;;2.90;0.93;;;51.20;36.60;;;;;;5025994;28;20105;-81
2022/09/06 07:32:22;;;;;;;0.98;0.77;;;51.90;35.40;;;;;;5010415;28;20038;-81
2022/09/06 07:34:48;;;;;;;3.75;0.75;;;;;;;;;;5025318;28;20040;-82
2022/09/06 07:37:14;;;;;;;3.35;0.82;;;;;;;;;;5012245;28;20496;-82
2022/09/06 07:39:40;;;;;;;3.35;0.98;;;;;;;;;;5004398;28;20402;-81
2022/09/06 07:42:06;;;;;;;3.95;0.50;;;;;;;;;;5029174;28;20033;-81
2022/09/06 07:44:32;;;;;;;5.90;0.47;;;;;;;;;;5018638;28;20029;-81
2022/09/06 07:47:01;;;;;;;3.00;0.38;;;;;;;;;;5025283;28;20025;-81
2022/09/06 07:49:28;;;;;;;6.13;0.60;;;;;;;;;;5029824;28;20053;-82
2022/09/06 07:51:54;;;;;;;5.88;0.80;;;;;;;;;;5029195;28;20033;-81
2022/09/06 07:54:21;;;;;;;3.85;0.40;;;34.00;49.20;;;;;;5029877;28;20033;-81
2022/09/06 07:56:47;;;;;;;2.67;0.40;;;;;;;;;;5013784;28;20025;-82
2022/09/06 07:59:13;;;;;;;3.17;0.70;;;;;;;;;;5024128;28;20072;-81
2022/09/06 08:01:39;;;;;;;4.25;0.70;;;42.90;37.30;;;;;;5028488;28;20075;-81
2022/09/06 08:04:06;;;;;;;;;;;42.70;35.80;;;;;;5027830;28;20722;-86
2022/09/06 08:06:34;;;;;;;2.97;0.77;;;46.10;32.70;;;;;;5029616;28;20012;-86
2022/09/06 08:09:01;;;;;;;3.03;0.63;;;43.90;31.90;;;;;;5029456;28;20029;-85
2022/09/06 08:11:31;;;;;;;4.47;0.95;;;42.20;39.30;;;;;;5029849;28;20025;-86
2022/09/06 08:13:59;;;;;;;3.38;0.43;;;39.80;35.60;;;;;;5022475;28;20450;-83
2022/09/06 08:16:26;;;;;;;2.55;0.80;;;37.60;37.50;;;;;;5014497;28;20026;-83
2022/09/06 08:19:04;;;;;;;10.77;0.90;;;35.90;39.20;;;;;;5027789;28;20541;-84
2022/09/06 08:21:31;;;;;;;4.85;0.68;;;34.50;44.40;;;;;;5029702;28;20108;-84
2022/09/06 08:24:02;;;;;;;8.18;0.65;;;33.90;41.60;;;;;;5027186;28;20083;-86
2022/09/06 08:26:30;;;;;;;2.70;0.70;;;33.50;42.30;;;;;;5029762;28;20654;-84
2022/09/06 08:29:00;;;;;;;5.25;0.90;;;34.80;41.90;;;;;;5028872;28;20524;-84
2022/09/06 08:31:28;;;;;;;4.43;0.90;;;36.10;40.20;;;;;;5029491;28;20029;-84
2022/09/06 08:33:54;;;;;;;3.42;0.65;;;;;;;;;;5029976;28;20524;-86
2022/09/06 08:36:20;;;;;;;3.10;0.95;;;35.70;48.10;;;;;;5028821;28;20021;-85
2022/09/06 08:38:46;;;;;;;5.15;1.25;;;;;;;;;;5029168;28;20037;-85
2022/09/06 08:41:59;;;;;;;2.92;0.50;;;40.40;39.50;;;;;;5028140;28;20049;-82
2022/09/06 08:44:33;;;;;;;6.82;0.55;;;41.70;41.20;;;;;;4967005;28;20752;-82
2022/09/06 08:47:24;;;;;;;6.05;0.52;;;39.90;35.80;;;;;;4960066;28;20122;-83
2022/09/06 08:49:53;;;;;;;1.85;0.40;;;37.90;45.20;;;;;;4951541;28;20150;-82
2022/09/06 08:52:27;;;;;;;3.05;1.00;;;35.80;39.50;;;;;;4957811;28;20043;-84
2022/09/06 08:54:53;;;;;;;2.20;0.93;;;;;;;;;;4960133;28;20043;-85
2022/09/06 08:57:36;;;;;;;3.63;1.05;;;33.70;41.90;;;;;;4964524;28;20081;-85
2022/09/06 09:00:10;;;;;;;1.60;0.40;;;32.70;44.60;;;;;;4953099;28;20038;-85
2022/09/06 09:03:06;;;;;;;1.95;0.60;;;29.90;43.70;;;;;;4954530;28;20031;-85
2022/09/06 09:05:33;;;;;;;;;;;31.50;45.70;;;;;;4965689;28;20540;-83
2022/09/06 09:08:05;;;;;;;8.77;1.13;;;29.90;47.20;;;;;;4960021;28;19914;-83
2022/09/06 09:10:46;;;;;;;1.88;0.75;;;29.50;57.70;;;;;;4964998;28;20412;-82
2022/09/06 09:13:45;;;;;;;4.90;0.52;;;29.00;58.70;;;;;;4960370;28;20031;-84
2022/09/06 09:16:11;;;;;;;3.92;1.85;;;;;;;;;;4960674;28;20039;-83
2022/09/06 09:18:39;;;;;;;4.07;0.73;;;28.10;61.80;;;;;;5005359;28;20120;-82
2022/09/06 09:21:05;;;;;;;6.32;0.73;;;;;;;;;;5028624;28;20032;-83
2022/09/06 09:23:31;;;;;;;3.92;0.70;;;;;;;;;;5028480;28;20479;-83
2022/09/06 09:26:08;;;;;;;2.83;0.80;;;27.50;63.70;;;;;;5027935;28;20104;-82
2022/09/06 09:28:34;;;;;;;8.77;0.73;;;27.20;54.20;;;;;;5027358;28;20315;-83
2022/09/06 09:31:00;;;;;;;4.83;1.47;;;;;;;;;;5028306;28;20029;-81
2022/09/06 09:33:34;;;;;;;5.40;1.33;;;26.70;57.50;;;;;;5028783;28;20437;-80
2022/09/06 09:36:06;;;;;;;4.78;1.10;;;26.70;55.20;;;;;;5020401;28;20040;-82
2022/09/06 09:38:44;;;;;;;3.67;1.10;;;26.90;56.90;;;;;;5018689;28;20577;-84
2022/09/06 09:41:32;;;;;;;1.60;0.50;;;27.00;55.20;;;;;;5032670;28;20025;-85
2022/09/06 09:44:10;;;;;;;2.47;0.68;;;27.10;59.60;;;;;;5032561;28;20529;-83
2022/09/06 09:46:38;;;;;;;2.28;0.63;;;27.10;55.70;;;;;;5032348;28;20037;-82
2022/09/06 09:49:06;;;;;;;2.28;0.50;;;27.30;55.90;;;;;;5032571;28;20037;-83
2022/09/06 09:51:38;;;;;;;2.25;0.70;;;27.50;56.10;;;;;;5031714;28;20053;-76
2022/09/06 09:54:07;;;;;;;1.95;0.77;;;28.00;56.10;;;;;;5032528;28;20397;-80
2022/09/06 09:56:37;;;;;;;1.77;0.90;;;29.20;55.00;;;;;;5032366;28;20021;-80
2022/09/06 09:59:16;;;;;;;8.32;1.90;;;31.00;52.90;;;;;;5031238;28;20116;-80
2022/09/06 10:01:42;;;;;;;5.40;1.13;;;;;;;;;;5032534;28;20367;-88
2022/09/06 10:04:10;;;;;;;6.37;1.33;;;32.90;49.70;;;;;;5032431;28;20032;-80
2022/09/06 10:06:37;;;;;;;7.53;1.05;;;33.10;50.00;;;;;;5031771;28;20111;-85
2022/09/06 10:09:32;;;;;;;6.20;1.25;;;34.30;48.90;;;;;;5043250;28;20040;-86
2022/09/06 10:11:58;;;;;;;1.52;0.88;;;34.50;55.00;;;;;;5028376;28;20034;-90
2022/09/06 10:14:30;;;;;;;4.05;0.50;;;35.00;51.80;;;;;;5030082;28;20517;-87
2022/09/06 10:16:57;;;;;;;2.97;0.68;;;40.10;50.20;;;;;;5017028;28;20029;-89
2022/09/06 10:19:34;;;;;;;3.75;0.95;;;43.90;44.30;;;;;;5026055;28;20394;-88
2022/09/06 10:22:12;;;;;;;1.88;0.70;;;47.30;40.90;;;;;;5014418;28;20022;-89
2022/09/06 10:25:12;;;;;;;3.38;0.80;;;49.80;39.10;;;;;;5023140;28;20029;-87
2022/09/06 10:28:01;;;;;;;5.22;0.85;;;51.00;35.30;;;;;;5022132;28;20463;-87
2022/09/06 10:30:30;;;;;;;4.25;0.43;;;51.10;32.00;;;;;;5013622;28;20097;-83
2022/09/06 10:33:08;;;;;;;4.22;0.70;;;50.40;34.10;;;;;;5032078;28;20053;-83
2022/09/06 10:35:36;;;;;;;1.10;0.50;;;51.30;31.00;;;;;;5031918;28;20017;-83
2022/09/06 10:38:23;;;;;;;3.72;0.90;;;52.20;31.70;;;;;;5030935;28;20121;-84
2022/09/06 10:41:07;;;;;;;2.80;0.50;;;52.90;32.80;;;;;;5031925;28;20099;-84
2022/09/06 10:43:52;;;;;;;7.93;1.67;;;53.70;32.60;;;;;;5018456;28;20079;-85
2022/09/06 10:46:22;;;;;;;0.98;0.60;;;54.50;29.00;;;;;;5030653;28;20752;-83
2022/09/06 10:48:47;;;;;;;3.05;0.65;;;54.60;31.50;;;;;;5030799;28;20041;-83
2022/09/06 10:51:38;;;;;;;1.08;0.73;;;55.00;28.30;;;;;;5027103;28;20022;-84
2022/09/06 10:54:05;;;;;;;7.50;0.80;;;;;;;;;;5024912;28;20099;-84
2022/09/06 10:57:03;;;;;;;8.90;1.73;;;54.20;27.60;;;;;;5030938;28;20025;-82
2022/09/06 10:59:54;;;;;;;2.63;0.77;;;53.00;26.10;;;;;;5030716;28;20018;-87
2022/09/06 11:02:38;;;;;;;2.97;1.00;;;52.40;26.70;;;;;;5009759;28;20470;-87
2022/09/06 11:05:09;;;;;;;3.28;1.20;;;51.90;26.50;;;;;;5032756;28;20368;-88
2022/09/06 11:07:48;;;;;;;5.72;1.15;;;51.20;29.00;;;;;;5031824;28;20079;-88
2022/09/06 11:10:26;;;;;;;3.28;0.63;;;48.80;27.60;;;;;;5025549;28;20091;-91
2022/09/06 11:13:04;;;;;;;6.40;1.02;;;45.30;34.60;;;;;;5028388;28;20029;-84
2022/09/06 11:15:56;;;;;;;5.72;0.75;;;41.20;31.00;;;;;;5010049;28;20025;-84
2022/09/06 11:18:40;;;;;;;5.90;1.02;;;;;;;;;;5010828;28;20137;-89
2022/09/06 11:21:06;;;;;;;5.13;1.20;;;;;;;;;;5012734;28;20471;-90
2022/09/06 11:23:38;;;;;;;8.50;1.27;;;35.70;46.30;;;;;;5011234;28;20033;-88
2022/09/06 11:26:15;;;;;;;1.33;0.40;;;34.40;39.00;;;;;;5010084;28;20029;-90
2022/09/06 11:28:50;;;;;;;1.30;0.60;;;33.80;48.80;;;;;;5011042;28;20034;-92
2022/09/06 11:31:31;;;;;;;4.72;0.90;;;36.10;49.50;;;;;;5011024;28;20479;-88
2022/09/06 11:34:10;;;;;;;2.45;0.90;;;40.50;35.30;;;;;;4999153;28;20027;-88
2022/09/06 11:36:56;;;;;;;1.92;0.70;;;41.00;34.80;;;;;;5010916;28;20022;-90
2022/09/06 11:39:32;;;;;;;7.88;1.60;;;39.60;41.50;;;;;;5010370;28;20026;-90
2022/09/06 11:41:58;;;;;;;;;;;38.30;36.60;;;;;;4998637;28;20033;-89
2022/09/06 11:44:49;;;;;;;3.63;0.82;;;35.50;39.40;;;;;;5011170;28;20426;-91
2022/09/06 11:47:53;;;;;;;7.38;0.85;;;34.00;47.90;;;;;;5011067;28;20037;-91
2022/09/06 11:50:27;;;;;;;6.30;1.20;;;;;;;;;;4959530;28;20046;-92
2022/09/06 11:53:13;;;;;;;5.65;0.80;;;33.80;42.20;;;;;;4958376;28;20515;-91
2022/09/06 11:55:59;;;;;;;7.32;1.45;;;33.10;44.70;;;;;;4969419;28;20035;-93
2022/09/06 11:58:46;;;;;;;4.60;1.00;;;32.70;44.40;;;;;;4967962;28;20035;-88
2022/09/06 12:01:12;;;;;;;4.47;1.40;;;;;;;;;;4970275;28;20756;-89
2022/09/06 12:03:47;;;;;;;2.33;1.10;;;33.50;52.10;;;;;;4969017;28;20031;-88
2022/09/06 12:06:15;;;;;;;1.70;0.82;;;33.20;52.60;;;;;;4957228;28;20034;-87
2022/09/06 12:08:42;;;;;;;2.70;0.68;;;;;;;;;;4968070;28;20611;-88
2022/09/06 12:11:25;;;;;;;;;;;33.00;43.60;;;;;;4971092;28;20035;-91
2022/09/06 12:14:02;;;;;;;4.63;0.90;;;33.20;52.30;;;;;;4973169;28;20392;-94
2022/09/06 12:17:03;;;;;;;5.43;1.33;;;33.30;43.40;;;;;;4972342;28;20027;-90
2022/09/06 12:19:53;;;;;;;2.83;0.73;;;34.80;42.50;;;;;;4941242;29;20078;-90
2022/09/06 12:22:28;;;;;;;5.53;0.73;;;34.40;42.00;;;;;;4990792;28;20034;-89
2022/09/06 12:25:01;;;;;;;7.72;0.85;;;34.50;42.20;;;;;;4981611;28;20515;-88
2022/09/06 12:27:36;;;;;;;4.38;0.73;;;35.10;50.90;;;;;;4991205;28;20022;-91
2022/09/06 12:30:10;;;;;;;6.78;1.20;;;35.10;41.40;;;;;;4985880;28;20026;-93
2022/09/06 12:32:48;;;;;;;2.28;0.90;;;35.10;51.00;;;;;;4981604;28;20395;-86
2022/09/06 12:35:19;;;;;;;3.08;0.65;;;35.30;41.90;;;;;;4989999;28;20034;-86
2022/09/06 12:37:57;;;;;;;2.70;0.65;;;34.80;46.70;;;;;;4983649;28;20045;-85
2022/09/06 12:40:25;;;;;;;7.07;1.02;;;34.70;50.90;;;;;;4970199;28;20031;-85
2022/09/06 12:42:51;;;;;;;3.60;0.90;;;;;;;;;;4985359;28;20164;-87
2022/09/06 12:45:20;;;;;;;2.83;0.75;;;34.50;42.20;;;;;;4991055;28;20026;-90
2022/09/06 12:47:46;;;;;;;6.03;0.65;;;;;;;;;;4989212;28;20507;-86
2022/09/06 12:50:19;;;;;;;5.15;0.88;;;33.80;50.20;;;;;;4987167;28;20023;-89
2022/09/06 12:52:45;;;;;;;3.00;0.80;;;;;;;;;;4986887;28;20046;-88
2022/09/06 12:55:18;;;;;;;1.60;0.57;;;33.50;44.10;;;;;;4989882;28;20566;-87
2022/09/06 12:57:53;;;;;;;6.28;1.05;;;33.40;44.40;;;;;;4990099;28;20829;-87
2022/09/06 13:00:21;;;;;;;7.25;1.63;;;33.30;44.70;;;;;;4988656;28;20109;-89
2022/09/06 13:02:47;;;;;;;6.05;0.95;;;;;;;;;;4989440;28;20186;-88
2022/09/06 13:05:13;;;;;;;3.63;0.45;;;32.70;53.90;;;;;;4990166;28;20101;-89
2022/09/06 13:07:52;;;;;;;2.53;1.00;;;32.40;45.50;;;;;;4990601;28;20035;-85
2022/09/06 13:10:21;;;;;;;5.60;0.75;;;32.40;45.60;;;;;;4988818;28;20026;-85
2022/09/06 13:12:52;;;;;;;5.68;0.82;;;32.00;45.90;;;;;;4990220;28;20037;-85
2022/09/06 13:15:29;;;;;;;6.20;1.77;;;31.60;46.30;;;;;;4989542;28;20027;-85
2022/09/06 13:18:22;;;;;;;8.43;1.58;;;31.20;49.80;;;;;;5003875;28;20104;-83
2022/09/06 13:21:04;;;;;;;4.38;1.50;;;31.10;50.00;;;;;;5028705;28;20695;-87
2022/09/06 13:23:43;;;;;;;6.47;1.00;;;30.90;47.40;;;;;;5028934;28;20055;-85
2022/09/06 13:26:09;;;;;;;3.15;1.02;;;;;;;;;;5028822;28;20030;-85
2022/09/06 13:28:35;;;;;;;6.53;0.90;;;;;;;;;;5028136;28;20046;-85
2022/09/06 13:31:07;;;;;;;3.63;0.80;;;30.30;48.30;;;;;;5029283;28;20105;-86
2022/09/06 13:33:33;;;;;;;3.65;1.23;;;;;;;;;;5028088;28;20599;-86
2022/09/06 13:36:10;;;;;;;4.30;0.80;;;29.90;49.60;;;;;;5028107;28;20053;-86
2022/09/06 13:38:36;;;;;;;7.53;0.82;;;;;;;;;;4998235;28;20018;-86
2022/09/06 13:41:04;;;;;;;1.80;0.70;;;29.50;50.10;;;;;;5028507;28;20036;-88
2022/09/06 13:43:32;;;;;;;4.95;0.70;;;29.30;56.30;;;;;;5027626;28;20087;-89
2022/09/06 13:46:06;;;;;;;3.30;0.77;;;29.30;50.50;;;;;;5029363;28;20232;-89